Time;durP1;ratioP1;P1;durP2;ratioP2;P2;SDS_P1;SDS_P2;PMS_P1;PMS_P2;Temp;Humidity;BMP_temperature;BMP_pressure;BME280_temperature;BME280_humidity;BME280_pressure;Samples;Min_cycle;Max_cycle;Signal;HPM_P1;HPM_P2
2022/09/27 00:00:13;;;;;;;5.05;1.67;;;13.00;99.90;;;;;;2092035;28;20029;-70
2022/09/27 00:01:15;;;;;;;4.15;1.60;;;13.00;99.90;;;;;;2091522;28;20108;-70
2022/09/27 00:02:15;;;;;;;8.55;2.03;;;13.00;99.90;;;;;;2093035;28;20024;-71
2022/09/27 00:03:16;;;;;;;6.63;2.20;;;13.00;99.90;;;;;;2094242;28;20032;-70
2022/09/27 00:04:16;;;;;;;6.35;2.17;;;13.00;99.90;;;;;;2092840;28;20032;-71
2022/09/27 00:05:17;;;;;;;4.50;1.75;;;13.00;99.90;;;;;;2092832;28;20512;-70
2022/09/27 00:06:23;;;;;;;6.45;2.08;;;13.00;99.90;;;;;;2091619;28;20754;-70
2022/09/27 00:07:24;;;;;;;7.00;2.13;;;13.00;99.90;;;;;;2092264;28;20020;-70
2022/09/27 00:08:24;;;;;;;2.92;1.98;;;13.00;99.90;;;;;;2094550;28;20043;-70
2022/09/27 00:09:25;;;;;;;7.72;2.50;;;13.10;99.90;;;;;;2093654;28;20493;-70
2022/09/27 00:10:25;;;;;;;6.82;2.20;;;13.10;99.90;;;;;;2093885;28;20029;-70
2022/09/27 00:11:35;;;;;;;5.95;2.50;;;13.10;99.90;;;;;;2093842;28;20728;-70
2022/09/27 00:12:37;;;;;;;5.78;2.17;;;13.10;99.90;;;;;;2094002;28;20019;-70
2022/09/27 00:13:37;;;;;;;5.43;2.00;;;13.10;99.90;;;;;;2093295;28;20626;-70
2022/09/27 00:14:38;;;;;;;16.23;2.15;;;13.10;99.90;;;;;;2093308;28;20365;-70
2022/09/27 00:15:38;;;;;;;4.55;1.98;;;13.10;99.90;;;;;;2095264;28;20095;-70
2022/09/27 00:16:40;;;;;;;5.00;2.00;;;13.20;99.90;;;;;;2093436;28;20053;-70
2022/09/27 00:17:41;;;;;;;5.60;1.90;;;13.10;99.90;;;;;;2093884;28;20056;-70
2022/09/27 00:18:41;;;;;;;5.57;1.95;;;13.10;99.90;;;;;;2093784;28;20021;-70
2022/09/27 00:19:42;;;;;;;4.43;2.17;;;13.10;99.90;;;;;;2093457;28;20031;-70
2022/09/27 00:20:42;;;;;;;5.68;1.92;;;13.10;99.90;;;;;;2094045;28;20113;-70
2022/09/27 00:21:45;;;;;;;4.70;2.42;;;13.20;99.90;;;;;;2093397;28;20028;-71
2022/09/27 00:22:47;;;;;;;7.07;2.28;;;13.20;99.90;;;;;;2093230;28;20104;-70
2022/09/27 00:23:47;;;;;;;8.38;2.15;;;13.20;99.90;;;;;;2091987;28;20048;-70
2022/09/27 00:24:48;;;;;;;7.00;1.77;;;13.20;99.90;;;;;;2092166;28;20077;-70
2022/09/27 00:25:56;;;;;;;6.05;2.10;;;13.20;99.90;;;;;;2092585;28;20385;-70
2022/09/27 00:26:56;;;;;;;5.10;2.13;;;13.20;99.90;;;;;;2092420;28;20025;-70
2022/09/27 00:27:57;;;;;;;4.70;1.80;;;13.20;99.90;;;;;;2093559;28;20020;-70
2022/09/27 00:28:58;;;;;;;3.75;1.77;;;13.20;99.90;;;;;;2091544;28;20557;-70
2022/09/27 00:29:58;;;;;;;5.88;2.08;;;13.20;99.90;;;;;;2091882;28;20454;-70
2022/09/27 00:30:59;;;;;;;4.78;1.92;;;13.20;99.90;;;;;;2091446;28;20035;-70
2022/09/27 00:32:00;;;;;;;5.70;1.90;;;13.20;99.90;;;;;;2092821;28;20029;-70
2022/09/27 00:33:01;;;;;;;5.80;1.80;;;13.20;99.90;;;;;;2092967;28;20127;-70
2022/09/27 00:34:02;;;;;;;10.80;2.28;;;13.20;99.90;;;;;;2093571;28;20064;-70
2022/09/27 00:35:03;;;;;;;4.07;1.83;;;13.20;99.90;;;;;;2093697;28;20338;-70
2022/09/27 00:36:05;;;;;;;6.90;2.17;;;13.20;99.90;;;;;;2095209;28;20623;-70
2022/09/27 00:37:06;;;;;;;5.93;2.17;;;13.20;99.90;;;;;;2094167;28;20026;-70
2022/09/27 00:38:06;;;;;;;4.35;1.52;;;13.20;99.90;;;;;;2093541;28;20887;-70
2022/09/27 00:39:08;;;;;;;5.10;1.67;;;13.20;99.90;;;;;;2092220;28;21175;-70
2022/09/27 00:40:08;;;;;;;5.53;1.42;;;13.20;99.90;;;;;;2091107;28;20074;-70
2022/09/27 00:41:18;;;;;;;2.72;1.55;;;13.20;99.90;;;;;;2102445;28;20020;-70
2022/09/27 00:42:19;;;;;;;6.25;1.63;;;13.20;99.90;;;;;;2099703;28;20039;-70
2022/09/27 00:43:22;;;;;;;3.58;1.80;;;13.20;99.90;;;;;;2093962;28;20091;-70
2022/09/27 00:44:25;;;;;;;7.55;1.95;;;13.20;99.90;;;;;;2092391;28;20032;-70
2022/09/27 00:45:26;;;;;;;6.75;2.10;;;13.20;99.90;;;;;;2092802;28;20399;-70
2022/09/27 00:46:40;;;;;;;5.35;1.67;;;13.20;99.90;;;;;;2093355;28;20024;-70
2022/09/27 00:47:55;;;;;;;7.15;1.88;;;13.20;99.90;;;;;;2092320;28;20085;-70
2022/09/27 00:49:22;;;;;;;3.90;1.50;;;13.20;99.90;;;;;;2092473;28;20431;-70
2022/09/27 00:50:31;;;;;;;5.25;2.22;;;13.10;99.90;;;;;;2095204;28;20107;-70
2022/09/27 00:51:34;;;;;;;5.82;2.22;;;13.10;99.90;;;;;;2095896;28;20032;-70
2022/09/27 00:53:01;;;;;;;5.55;1.75;;;13.00;99.90;;;;;;2091649;28;20025;-70
2022/09/27 00:54:02;;;;;;;3.65;2.35;;;13.00;99.90;;;;;;2091554;28;20099;-70
2022/09/27 00:55:14;;;;;;;7.43;2.83;;;13.00;99.90;;;;;;2092972;28;20019;-70
2022/09/27 00:56:19;;;;;;;6.18;2.40;;;13.00;99.90;;;;;;2089162;28;20037;-70
2022/09/27 00:57:21;;;;;;;4.40;2.67;;;13.00;99.90;;;;;;2094173;28;20025;-71
2022/09/27 00:58:28;;;;;;;7.55;2.90;;;13.00;99.90;;;;;;2092527;28;20865;-71
2022/09/27 00:59:34;;;;;;;6.30;2.83;;;13.00;99.90;;;;;;2092519;28;20028;-71
2022/09/27 01:00:38;;;;;;;5.75;3.03;;;13.00;99.90;;;;;;2093264;28;20078;-71
2022/09/27 01:01:39;;;;;;;8.07;3.67;;;13.00;99.90;;;;;;2092947;28;20020;-71
2022/09/27 01:02:44;;;;;;;8.07;3.47;;;13.00;99.90;;;;;;2093253;28;20021;-71
2022/09/27 01:03:59;;;;;;;6.25;3.22;;;13.00;99.90;;;;;;2092627;28;20036;-70
2022/09/27 01:05:00;;;;;;;12.00;3.53;;;13.00;99.90;;;;;;2092298;28;20013;-71
2022/09/27 01:06:01;;;;;;;6.07;3.72;;;13.00;99.90;;;;;;2092437;28;20024;-71
2022/09/27 01:07:02;;;;;;;5.75;3.38;;;13.00;99.90;;;;;;2093978;28;20601;-71
2022/09/27 01:08:04;;;;;;;7.88;4.07;;;13.00;99.90;;;;;;2093333;28;20086;-71
2022/09/27 01:09:06;;;;;;;8.13;3.30;;;13.10;99.90;;;;;;2093635;28;20059;-71
2022/09/27 01:10:07;;;;;;;7.30;4.03;;;13.10;99.90;;;;;;2091188;28;20140;-71
2022/09/27 01:11:32;;;;;;;10.02;5.05;;;13.10;99.90;;;;;;2093800;28;20029;-71
2022/09/27 01:12:51;;;;;;;6.82;4.35;;;13.10;99.90;;;;;;2091560;28;20021;-71
2022/09/27 01:14:06;;;;;;;7.45;4.70;;;13.00;99.90;;;;;;2093023;28;20036;-71
2022/09/27 01:15:15;;;;;;;9.65;4.57;;;13.00;99.90;;;;;;2090899;28;20017;-71
2022/09/27 01:16:42;;;;;;;8.32;5.10;;;13.00;99.90;;;;;;2093075;28;20024;-71
2022/09/27 01:18:24;;;;;;;6.38;3.88;;;13.00;99.90;;;;;;2094123;28;20460;-71
2022/09/27 01:19:42;;;;;;;8.32;4.10;;;13.00;99.90;;;;;;2093461;28;20373;-71
2022/09/27 01:21:08;;;;;;;11.00;4.50;;;12.90;99.90;;;;;;2093904;28;20017;-71
2022/09/27 01:22:23;;;;;;;6.10;4.50;;;12.90;99.90;;;;;;2092815;28;20032;-71
2022/09/27 01:23:33;;;;;;;8.85;4.22;;;13.00;99.90;;;;;;2090671;28;20101;-71
2022/09/27 01:24:39;;;;;;;5.63;3.65;;;12.90;99.90;;;;;;2092620;28;20795;-71
2022/09/27 01:26:08;;;;;;;7.93;3.70;;;12.90;99.90;;;;;;2095404;28;20024;-71
2022/09/27 01:27:21;;;;;;;7.00;4.18;;;13.00;99.90;;;;;;2091638;28;20036;-71
2022/09/27 01:28:39;;;;;;;7.65;4.22;;;13.00;99.90;;;;;;2091272;28;20070;-71
2022/09/27 01:29:53;;;;;;;7.43;4.05;;;12.90;99.90;;;;;;2093386;28;20031;-71
2022/09/27 01:31:15;;;;;;;7.43;4.50;;;12.90;99.90;;;;;;2092638;28;20040;-71
2022/09/27 01:32:28;;;;;;;7.60;4.00;;;12.90;99.90;;;;;;2092982;28;20048;-71
2022/09/27 01:34:15;;;;;;;5.55;3.40;;;12.90;99.90;;;;;;2092695;28;20032;-71
2022/09/27 01:35:35;;;;;;;8.27;4.13;;;12.90;99.90;;;;;;2085530;28;20090;-71
2022/09/27 01:36:45;;;;;;;5.95;3.30;;;12.90;99.90;;;;;;2088459;28;20033;-70
2022/09/27 01:38:17;;;;;;;8.27;3.53;;;12.90;99.90;;;;;;2092752;28;20028;-71
2022/09/27 01:39:25;;;;;;;7.78;3.95;;;12.90;99.90;;;;;;2092003;28;20112;-71
2022/09/27 01:40:36;;;;;;;6.20;3.45;;;12.90;99.90;;;;;;2093283;28;20103;-71
2022/09/27 01:42:00;;;;;;;9.65;3.92;;;13.00;99.90;;;;;;2092494;28;20111;-71
2022/09/27 01:43:09;;;;;;;5.85;3.65;;;12.90;99.90;;;;;;2088711;28;20037;-71
2022/09/27 01:44:28;;;;;;;8.43;3.43;;;12.90;99.90;;;;;;2090124;28;20031;-71
2022/09/27 01:45:37;;;;;;;6.40;3.70;;;12.90;99.90;;;;;;2092920;28;20255;-71
2022/09/27 01:46:46;;;;;;;6.38;3.47;;;12.90;99.90;;;;;;2092334;28;20083;-71
2022/09/27 01:47:53;;;;;;;8.40;4.07;;;12.90;99.90;;;;;;2090994;28;20396;-71
2022/09/27 01:48:57;;;;;;;8.20;3.78;;;12.90;99.90;;;;;;2091193;28;20025;-71
2022/09/27 01:50:10;;;;;;;10.95;4.40;;;12.90;99.90;;;;;;2092621;28;20028;-71
2022/09/27 01:51:16;;;;;;;5.50;3.58;;;12.90;99.90;;;;;;2090283;28;20029;-71
2022/09/27 01:52:21;;;;;;;6.18;3.30;;;12.90;99.90;;;;;;2092770;28;20048;-70
2022/09/27 01:53:29;;;;;;;7.90;3.65;;;12.90;99.90;;;;;;2090584;28;20715;-70
2022/09/27 01:54:42;;;;;;;7.53;4.10;;;12.90;99.90;;;;;;2092474;28;20024;-71
2022/09/27 01:55:45;;;;;;;6.70;3.35;;;12.90;99.90;;;;;;2094024;28;20070;-71
2022/09/27 01:56:54;;;;;;;6.88;4.97;;;12.90;99.90;;;;;;2094738;28;20079;-71
2022/09/27 01:58:19;;;;;;;5.82;4.20;;;12.90;99.90;;;;;;2091504;28;20047;-71
2022/09/27 01:59:45;;;;;;;8.57;4.13;;;12.90;99.90;;;;;;2092623;28;20652;-71
2022/09/27 02:00:49;;;;;;;6.45;4.43;;;12.80;99.90;;;;;;2090928;28;20080;-71
2022/09/27 02:01:52;;;;;;;8.23;4.60;;;12.80;99.90;;;;;;2092127;28;20052;-71
2022/09/27 02:02:58;;;;;;;8.77;4.80;;;12.80;99.90;;;;;;2092778;28;20024;-71
2022/09/27 02:04:00;;;;;;;10.38;4.50;;;12.80;99.90;;;;;;2092221;28;20032;-71
2022/09/27 02:05:04;;;;;;;7.35;4.22;;;12.80;99.90;;;;;;2092420;28;20131;-71
2022/09/27 02:06:29;;;;;;;7.75;4.57;;;12.80;99.90;;;;;;2092926;28;20083;-71
2022/09/27 02:07:40;;;;;;;5.93;3.92;;;12.90;99.90;;;;;;2091518;28;20024;-71
2022/09/27 02:08:51;;;;;;;11.35;4.80;;;12.80;99.90;;;;;;2091942;28;20473;-71
2022/09/27 02:09:59;;;;;;;7.50;4.45;;;12.90;99.90;;;;;;2092231;28;20108;-71
2022/09/27 02:11:03;;;;;;;8.13;4.20;;;12.90;99.90;;;;;;2091590;28;20075;-70
2022/09/27 02:12:08;;;;;;;14.40;4.63;;;12.90;99.90;;;;;;2093800;28;20024;-71
2022/09/27 02:13:11;;;;;;;5.10;4.50;;;12.90;99.90;;;;;;2092027;28;20074;-71
2022/09/27 02:14:21;;;;;;;8.73;5.32;;;12.90;99.90;;;;;;2090863;28;20040;-71
2022/09/27 02:15:23;;;;;;;7.50;4.30;;;12.90;99.90;;;;;;2093795;28;20017;-71
2022/09/27 02:16:49;;;;;;;7.25;4.78;;;12.90;99.90;;;;;;2092802;28;20033;-71
2022/09/27 02:18:06;;;;;;;8.88;4.70;;;12.90;99.90;;;;;;2091144;28;20425;-71
2022/09/27 02:19:10;;;;;;;10.32;5.18;;;12.90;99.90;;;;;;2092353;28;20036;-71
2022/09/27 02:20:22;;;;;;;11.63;5.57;;;12.90;99.90;;;;;;2092096;28;20025;-71
2022/09/27 02:22:00;;;;;;;8.20;5.40;;;12.90;99.90;;;;;;2091747;28;20035;-71
2022/09/27 02:23:28;;;;;;;11.90;5.30;;;12.90;99.90;;;;;;2078618;28;20025;-71
2022/09/27 02:25:09;;;;;;;8.90;5.25;;;12.80;99.90;;;;;;2092625;28;20024;-71
2022/09/27 02:26:12;;;;;;;9.13;5.32;;;12.80;99.90;;;;;;2087749;28;20036;-71
2022/09/27 02:27:54;;;;;;;7.18;4.50;;;12.80;99.90;;;;;;2088613;28;20033;-71
2022/09/27 02:29:10;;;;;;;8.07;5.03;;;12.80;99.90;;;;;;2077988;28;20037;-71
2022/09/27 02:30:13;;;;;;;8.00;4.68;;;12.80;99.90;;;;;;2092593;28;20021;-71
2022/09/27 02:31:13;;;;;;;8.35;4.80;;;12.80;99.90;;;;;;2090817;28;20028;-71
2022/09/27 02:32:14;;;;;;;8.93;5.25;;;12.80;99.90;;;;;;2093127;28;20106;-71
2022/09/27 02:33:16;;;;;;;7.85;4.60;;;12.80;99.90;;;;;;2091960;28;20492;-71
2022/09/27 02:34:30;;;;;;;10.23;5.22;;;12.80;99.90;;;;;;2090462;28;20031;-71
2022/09/27 02:35:32;;;;;;;7.10;4.70;;;12.80;99.90;;;;;;2093367;28;20024;-71
2022/09/27 02:36:33;;;;;;;7.47;5.03;;;12.80;99.90;;;;;;2090618;28;20459;-71
2022/09/27 02:37:33;;;;;;;8.02;5.47;;;12.80;99.90;;;;;;2091470;28;20373;-71
2022/09/27 02:38:34;;;;;;;5.88;4.38;;;12.70;99.90;;;;;;2092832;28;20020;-71
2022/09/27 02:39:35;;;;;;;8.25;5.57;;;12.80;99.90;;;;;;2090818;28;20031;-71
2022/09/27 02:40:43;;;;;;;7.18;4.40;;;12.80;99.90;;;;;;2092985;28;20032;-71
2022/09/27 02:41:43;;;;;;;7.70;4.85;;;12.80;99.90;;;;;;2093233;28;20021;-71
2022/09/27 02:42:44;;;;;;;8.48;4.82;;;12.70;99.90;;;;;;2092673;28;20028;-71
2022/09/27 02:43:49;;;;;;;7.50;4.57;;;12.70;99.90;;;;;;2091887;28;20052;-71
2022/09/27 02:44:50;;;;;;;8.57;4.78;;;12.70;99.90;;;;;;2092374;28;20024;-71
2022/09/27 02:46:35;;;;;;;7.43;4.75;;;12.70;99.90;;;;;;2091299;28;20029;-71
2022/09/27 02:47:58;;;;;;;7.63;4.95;;;12.70;99.90;;;;;;2093201;28;20369;-71
2022/09/27 02:49:02;;;;;;;7.22;4.10;;;12.70;99.90;;;;;;2090063;28;20587;-71
2022/09/27 02:50:35;;;;;;;6.90;4.30;;;12.70;99.90;;;;;;2091194;28;20028;-71
2022/09/27 02:51:46;;;;;;;9.52;5.03;;;12.70;99.90;;;;;;2091840;28;20021;-71
2022/09/27 02:53:25;;;;;;;8.50;4.90;;;12.70;99.90;;;;;;2092108;28;20060;-71
2022/09/27 02:54:51;;;;;;;7.70;5.00;;;12.60;99.90;;;;;;2092287;28;20029;-71
2022/09/27 02:56:16;;;;;;;11.40;5.03;;;12.60;99.90;;;;;;2093980;28;20479;-71
2022/09/27 02:57:27;;;;;;;6.53;4.35;;;12.60;99.90;;;;;;2091265;28;20033;-71
2022/09/27 02:58:48;;;;;;;4.90;4.28;;;12.60;99.90;;;;;;2091854;28;20726;-71
2022/09/27 03:00:08;;;;;;;9.75;4.55;;;12.60;99.90;;;;;;2092705;28;20036;-71
2022/09/27 03:01:15;;;;;;;;;;;12.60;99.90;;;;;;2090226;28;20550;-71
2022/09/27 03:02:27;;;;;;;6.85;4.40;;;12.60;99.90;;;;;;2092179;28;19916;-71
2022/09/27 03:03:34;;;;;;;8.45;4.10;;;12.60;99.90;;;;;;2092530;28;20031;-71
2022/09/27 03:04:56;;;;;;;6.57;4.40;;;12.60;99.90;;;;;;2091485;28;20564;-71
2022/09/27 03:06:05;;;;;;;6.72;4.85;;;12.60;99.90;;;;;;2094430;28;20033;-72
2022/09/27 03:07:06;;;;;;;8.13;5.30;;;12.60;99.90;;;;;;2099839;28;20032;-71
2022/09/27 03:08:07;;;;;;;8.10;5.72;;;12.60;99.90;;;;;;2094319;28;20111;-71
2022/09/27 03:09:19;;;;;;;9.10;5.43;;;12.60;99.90;;;;;;2093576;28;20020;-71
2022/09/27 03:10:26;;;;;;;10.48;5.40;;;12.70;99.90;;;;;;2092552;28;20028;-71
2022/09/27 03:11:27;;;;;;;8.35;5.63;;;12.70;99.90;;;;;;2092280;28;20029;-71
2022/09/27 03:12:27;;;;;;;9.00;5.65;;;12.70;99.90;;;;;;2092114;28;20115;-71
2022/09/27 03:13:28;;;;;;;8.07;5.63;;;12.70;99.90;;;;;;2090873;28;20385;-71
2022/09/27 03:14:29;;;;;;;9.63;6.25;;;12.70;99.90;;;;;;2092790;28;20432;-71
2022/09/27 03:15:30;;;;;;;7.32;5.40;;;12.70;99.90;;;;;;2091661;28;20127;-71
2022/09/27 03:16:31;;;;;;;8.68;5.38;;;12.70;99.90;;;;;;2094392;28;20025;-71
2022/09/27 03:17:31;;;;;;;4.47;3.70;;;12.70;99.90;;;;;;2091465;28;20019;-71
2022/09/27 03:18:32;;;;;;;8.32;5.15;;;12.60;99.90;;;;;;2091451;28;20021;-71
2022/09/27 03:19:33;;;;;;;9.55;5.40;;;12.70;99.90;;;;;;2091532;28;20028;-71
2022/09/27 03:20:34;;;;;;;11.35;5.00;;;12.70;99.90;;;;;;2092196;28;20044;-72
2022/09/27 03:21:34;;;;;;;8.50;5.85;;;12.70;99.90;;;;;;2091541;28;20032;-71
2022/09/27 03:22:36;;;;;;;9.13;5.40;;;12.70;99.90;;;;;;2092053;28;20112;-71
2022/09/27 03:23:37;;;;;;;5.38;4.25;;;12.70;99.90;;;;;;2097915;28;20027;-71
2022/09/27 03:24:37;;;;;;;5.90;4.65;;;12.70;99.90;;;;;;2098530;28;20028;-71
2022/09/27 03:25:39;;;;;;;8.00;5.07;;;12.70;99.90;;;;;;2093745;28;20502;-71
2022/09/27 03:26:39;;;;;;;6.75;5.10;;;12.70;99.90;;;;;;2091059;28;20063;-71
2022/09/27 03:27:40;;;;;;;7.38;5.13;;;12.70;99.90;;;;;;2091367;28;20032;-71
2022/09/27 03:28:40;;;;;;;8.65;5.10;;;12.70;99.90;;;;;;2094086;28;20024;-71
2022/09/27 03:29:41;;;;;;;7.63;4.97;;;12.70;99.90;;;;;;2090255;28;20025;-71
2022/09/27 03:30:43;;;;;;;7.65;4.82;;;12.70;99.90;;;;;;2092942;28;20048;-71
2022/09/27 03:31:44;;;;;;;11.77;4.60;;;12.60;99.90;;;;;;2091947;28;20078;-71
2022/09/27 03:32:45;;;;;;;8.93;4.60;;;12.60;99.90;;;;;;2093291;28;20082;-71
2022/09/27 03:33:46;;;;;;;7.57;4.70;;;12.60;99.90;;;;;;2095078;28;20024;-71
2022/09/27 03:34:46;;;;;;;9.57;4.90;;;12.60;99.90;;;;;;2094498;28;20013;-71
2022/09/27 03:35:47;;;;;;;9.23;4.93;;;12.60;99.90;;;;;;2093446;28;20094;-72
2022/09/27 03:36:47;;;;;;;6.20;4.40;;;12.60;99.90;;;;;;2092449;28;20048;-71
2022/09/27 03:37:48;;;;;;;7.40;4.13;;;12.60;99.90;;;;;;2091733;28;20024;-72
2022/09/27 03:38:49;;;;;;;6.57;4.30;;;12.60;99.90;;;;;;2092238;28;20017;-72
2022/09/27 03:39:49;;;;;;;5.32;4.18;;;12.60;99.90;;;;;;2093969;28;20013;-72
2022/09/27 03:40:50;;;;;;;6.55;3.78;;;12.60;99.90;;;;;;2094552;28;20047;-72
2022/09/27 03:41:51;;;;;;;7.13;3.35;;;12.50;99.90;;;;;;2092124;28;20029;-72
2022/09/27 03:42:51;;;;;;;5.93;3.70;;;12.50;99.90;;;;;;2094092;28;20027;-71
2022/09/27 03:43:53;;;;;;;4.13;3.63;;;12.50;99.90;;;;;;2091889;28;20090;-71
2022/09/27 03:44:54;;;;;;;9.73;3.85;;;12.50;99.90;;;;;;2094937;28;20025;-72
2022/09/27 03:45:54;;;;;;;4.30;3.10;;;12.50;99.90;;;;;;2093148;28;20112;-71
2022/09/27 03:46:56;;;;;;;5.22;2.88;;;12.50;99.90;;;;;;2092953;28;20025;-71
2022/09/27 03:47:56;;;;;;;6.07;3.00;;;12.50;99.90;;;;;;2094584;28;20019;-71
2022/09/27 03:48:57;;;;;;;7.18;3.17;;;12.50;99.90;;;;;;2094608;28;20257;-72
2022/09/27 03:49:57;;;;;;;6.13;2.65;;;12.50;99.90;;;;;;2094368;28;20032;-72
2022/09/27 03:50:58;;;;;;;5.82;3.60;;;12.50;99.90;;;;;;2093218;28;20024;-71
2022/09/27 03:52:01;;;;;;;3.85;3.28;;;12.50;99.90;;;;;;2093127;28;20024;-71
2022/09/27 03:53:01;;;;;;;8.60;3.40;;;12.50;99.90;;;;;;2094085;28;20021;-71
2022/09/27 03:54:02;;;;;;;6.10;3.58;;;12.50;99.90;;;;;;2092105;28;20021;-71
2022/09/27 03:55:03;;;;;;;7.38;3.53;;;12.50;99.90;;;;;;2093165;28;20365;-72
2022/09/27 03:56:04;;;;;;;4.05;2.67;;;12.50;99.90;;;;;;2095373;28;20655;-71
2022/09/27 03:57:05;;;;;;;7.75;3.13;;;12.50;99.90;;;;;;2094495;28;20452;-71
2022/09/27 03:58:05;;;;;;;4.15;2.78;;;12.50;99.90;;;;;;2094862;28;20024;-71
2022/09/27 03:59:06;;;;;;;5.50;3.13;;;12.50;99.90;;;;;;2093633;28;20044;-71
2022/09/27 04:00:07;;;;;;;4.53;2.60;;;12.40;99.90;;;;;;2094524;28;20033;-72
2022/09/27 04:01:08;;;;;;;4.45;2.67;;;12.50;99.90;;;;;;2093347;28;20032;-71
2022/09/27 04:02:08;;;;;;;7.68;3.20;;;12.40;99.90;;;;;;2091412;28;20484;-71
2022/09/27 04:03:09;;;;;;;6.93;3.67;;;12.40;99.90;;;;;;2095052;28;20543;-71
2022/09/27 04:04:10;;;;;;;3.85;2.63;;;12.40;99.90;;;;;;2092801;28;20029;-72
2022/09/27 04:05:11;;;;;;;3.97;2.97;;;12.40;99.90;;;;;;2095118;28;20114;-71
2022/09/27 04:06:11;;;;;;;7.93;2.80;;;12.40;99.90;;;;;;2094542;28;20040;-71
2022/09/27 04:07:12;;;;;;;5.40;3.10;;;12.40;99.90;;;;;;2093017;28;20083;-72
2022/09/27 04:08:13;;;;;;;4.38;2.97;;;12.30;99.90;;;;;;2100233;28;20622;-72
2022/09/27 04:09:13;;;;;;;5.35;2.83;;;12.40;99.90;;;;;;2102330;28;20471;-71
2022/09/27 04:10:14;;;;;;;3.95;2.72;;;12.30;99.90;;;;;;2091250;28;20024;-71
2022/09/27 04:11:16;;;;;;;8.45;2.58;;;12.30;99.90;;;;;;2094215;28;20055;-71
2022/09/27 04:12:16;;;;;;;5.47;2.67;;;12.30;99.90;;;;;;2092059;28;20055;-71
2022/09/27 04:13:17;;;;;;;4.00;2.85;;;12.40;99.90;;;;;;2091454;28;20554;-72
2022/09/27 04:14:17;;;;;;;5.82;3.17;;;12.30;99.90;;;;;;2093499;28;20142;-71
2022/09/27 04:15:18;;;;;;;6.63;3.35;;;12.30;99.90;;;;;;2093180;28;20020;-72
2022/09/27 04:16:19;;;;;;;6.32;3.70;;;12.30;99.90;;;;;;2092754;28;20052;-71
2022/09/27 04:17:19;;;;;;;6.95;3.75;;;12.30;99.90;;;;;;2091931;28;20040;-71
2022/09/27 04:18:20;;;;;;;8.55;4.15;;;12.40;99.90;;;;;;2092002;28;20025;-72
2022/09/27 04:19:20;;;;;;;11.10;5.13;;;12.40;99.90;;;;;;2093438;28;20539;-71
2022/09/27 04:20:21;;;;;;;9.48;6.25;;;12.30;99.90;;;;;;2094073;28;20360;-72
2022/09/27 04:21:22;;;;;;;7.72;6.47;;;12.30;99.90;;;;;;2094456;28;20036;-72
2022/09/27 04:22:22;;;;;;;11.18;8.05;;;12.30;99.90;;;;;;2094798;28;20040;-72
2022/09/27 04:23:23;;;;;;;10.50;9.18;;;12.40;99.90;;;;;;2093088;28;20078;-71
2022/09/27 04:24:24;;;;;;;11.63;8.90;;;12.40;99.90;;;;;;2092851;28;20055;-71
2022/09/27 04:25:24;;;;;;;11.75;10.50;;;12.30;99.90;;;;;;2094372;28;20025;-72
2022/09/27 04:26:25;;;;;;;12.93;10.27;;;12.30;99.90;;;;;;2092157;28;20025;-72
2022/09/27 04:27:25;;;;;;;15.05;10.80;;;12.40;99.90;;;;;;2093760;28;20035;-72
2022/09/27 04:28:29;;;;;;;13.57;10.48;;;12.30;99.90;;;;;;2094089;28;20074;-72
2022/09/27 04:29:30;;;;;;;12.63;11.32;;;12.30;99.90;;;;;;2095049;28;20044;-72
2022/09/27 04:30:31;;;;;;;14.98;12.10;;;12.30;99.90;;;;;;2095800;28;20078;-72
2022/09/27 04:31:32;;;;;;;14.73;11.82;;;12.30;99.90;;;;;;2094772;28;20033;-71
2022/09/27 04:32:32;;;;;;;15.88;11.35;;;12.30;99.90;;;;;;2094310;28;20024;-71
2022/09/27 04:33:33;;;;;;;15.40;11.40;;;12.30;99.90;;;;;;2093466;28;20043;-72
2022/09/27 04:37:12;;;;;;;11.55;8.55;;;12.30;99.90;;;;;;2093428;28;20598;-72
2022/09/27 04:38:13;;;;;;;12.15;9.98;;;12.20;99.90;;;;;;2094630;28;20024;-72
2022/09/27 04:39:13;;;;;;;11.65;9.45;;;12.20;99.90;;;;;;2092321;28;20020;-72
2022/09/27 04:40:16;;;;;;;11.57;8.18;;;12.20;99.90;;;;;;2091660;28;20034;-72
2022/09/27 04:41:16;;;;;;;10.13;8.38;;;12.30;99.90;;;;;;2093549;28;20066;-72
2022/09/27 04:42:17;;;;;;;13.30;8.00;;;12.20;99.90;;;;;;2091962;28;20074;-72
2022/09/27 04:43:18;;;;;;;11.40;7.88;;;12.20;99.90;;;;;;2094207;28;20033;-72
2022/09/27 04:44:19;;;;;;;10.00;7.13;;;12.30;99.90;;;;;;2092893;28;20136;-72
2022/09/27 04:45:20;;;;;;;14.35;7.30;;;12.30;99.90;;;;;;2091497;28;20078;-72
2022/09/27 04:46:21;;;;;;;10.38;6.80;;;12.30;99.90;;;;;;2093634;28;20029;-71
2022/09/27 04:47:21;;;;;;;8.57;7.07;;;12.30;99.90;;;;;;2093229;28;20381;-71
2022/09/27 04:48:22;;;;;;;13.85;7.55;;;12.30;99.90;;;;;;2100967;28;20028;-72
2022/09/27 04:49:22;;;;;;;10.85;7.43;;;12.30;99.90;;;;;;2100180;28;20024;-72
2022/09/27 04:50:23;;;;;;;10.88;7.05;;;12.30;99.90;;;;;;2091818;28;20075;-72
2022/09/27 04:51:24;;;;;;;9.70;7.25;;;12.30;99.90;;;;;;2091574;28;20035;-72
2022/09/27 04:52:24;;;;;;;12.30;6.95;;;12.30;99.90;;;;;;2092445;28;20031;-71
2022/09/27 04:53:25;;;;;;;10.27;7.53;;;12.30;99.90;;;;;;2091332;28;20032;-72
2022/09/27 04:54:26;;;;;;;11.52;7.82;;;12.30;99.90;;;;;;2094287;28;20036;-72
2022/09/27 04:55:26;;;;;;;11.27;7.65;;;12.30;99.90;;;;;;2093905;28;20041;-72
2022/09/27 04:56:27;;;;;;;13.23;8.35;;;12.30;99.90;;;;;;2092975;28;20085;-72
2022/09/27 04:57:27;;;;;;;12.25;9.57;;;12.30;99.90;;;;;;2092972;28;20025;-72
2022/09/27 04:58:28;;;;;;;12.57;8.60;;;12.40;99.90;;;;;;2093196;28;20547;-72
2022/09/27 04:59:30;;;;;;;14.90;9.27;;;12.40;99.90;;;;;;2094140;28;20031;-72
2022/09/27 05:00:31;;;;;;;14.68;8.95;;;12.30;99.90;;;;;;2093569;28;20028;-72
2022/09/27 05:01:32;;;;;;;11.45;9.27;;;12.40;99.90;;;;;;2094313;28;20384;-71
2022/09/27 05:02:33;;;;;;;10.10;9.10;;;12.40;99.90;;;;;;2091470;28;20021;-72
2022/09/27 05:03:34;;;;;;;13.45;10.10;;;12.40;99.90;;;;;;2092802;28;20017;-72
2022/09/27 05:04:34;;;;;;;10.85;9.55;;;12.40;99.90;;;;;;2092968;28;20024;-72
2022/09/27 05:05:35;;;;;;;11.90;9.25;;;12.40;99.90;;;;;;2092228;28;20072;-72
2022/09/27 05:06:35;;;;;;;10.90;9.52;;;12.30;99.90;;;;;;2093316;28;20047;-72
2022/09/27 05:07:37;;;;;;;14.05;9.45;;;12.30;99.90;;;;;;2093079;28;20053;-72
2022/09/27 05:08:38;;;;;;;15.68;10.60;;;12.30;99.90;;;;;;2093164;28;20107;-72
2022/09/27 05:09:39;;;;;;;11.32;10.23;;;12.30;99.90;;;;;;2092509;28;20020;-72
2022/09/27 05:10:39;;;;;;;14.88;9.70;;;12.30;99.90;;;;;;2092793;28;20035;-71
2022/09/27 05:11:40;;;;;;;12.48;9.30;;;12.30;99.90;;;;;;2091639;28;21409;-71
2022/09/27 05:12:40;;;;;;;12.63;10.10;;;12.30;99.90;;;;;;2093962;28;20058;-71
2022/09/27 05:13:41;;;;;;;13.85;9.40;;;12.30;99.90;;;;;;2090537;28;20388;-71
2022/09/27 05:14:41;;;;;;;10.65;9.55;;;12.30;99.90;;;;;;2093324;28;20035;-72
2022/09/27 05:15:42;;;;;;;11.63;9.68;;;12.30;99.90;;;;;;2094200;28;20025;-72
2022/09/27 05:16:42;;;;;;;10.38;9.32;;;12.30;99.90;;;;;;2092253;28;20025;-72
2022/09/27 05:17:44;;;;;;;12.98;9.90;;;12.30;99.90;;;;;;2092690;28;20542;-72
2022/09/27 05:18:45;;;;;;;11.48;9.45;;;12.30;99.90;;;;;;2093259;28;20017;-72
2022/09/27 05:19:45;;;;;;;11.20;9.02;;;12.30;99.90;;;;;;2093429;28;20024;-72
2022/09/27 05:20:46;;;;;;;10.68;9.35;;;12.30;99.90;;;;;;2091892;28;20028;-72
2022/09/27 05:21:46;;;;;;;11.90;9.65;;;12.30;99.90;;;;;;2091841;28;20491;-72
2022/09/27 05:22:47;;;;;;;11.10;9.38;;;12.30;99.90;;;;;;2093480;28;20471;-71
2022/09/27 05:23:47;;;;;;;11.10;9.35;;;12.30;99.90;;;;;;2093167;28;20104;-71
2022/09/27 05:24:48;;;;;;;13.27;9.85;;;12.30;99.90;;;;;;2093112;28;20040;-71
2022/09/27 05:25:48;;;;;;;9.63;8.57;;;12.30;99.90;;;;;;2093149;28;20418;-72
2022/09/27 05:26:49;;;;;;;13.52;10.02;;;12.30;99.90;;;;;;2093767;28;20017;-72
2022/09/27 05:27:50;;;;;;;10.90;8.75;;;12.30;99.90;;;;;;2092994;28;20070;-72
2022/09/27 05:28:51;;;;;;;12.80;8.75;;;12.30;99.90;;;;;;2092994;28;20476;-72
2022/09/27 05:29:53;;;;;;;10.35;7.88;;;12.30;99.90;;;;;;2092095;28;20391;-72
2022/09/27 05:30:53;;;;;;;10.77;8.45;;;12.30;99.90;;;;;;2092939;28;20371;-72
2022/09/27 05:31:54;;;;;;;11.68;8.23;;;12.30;99.90;;;;;;2090338;28;20032;-71
2022/09/27 05:32:54;;;;;;;9.52;7.70;;;12.30;99.90;;;;;;2091301;28;20020;-71
2022/09/27 05:33:55;;;;;;;8.02;6.72;;;12.30;99.90;;;;;;2092689;28;20031;-72
2022/09/27 05:34:55;;;;;;;10.18;7.80;;;12.30;99.90;;;;;;2091699;28;20029;-72
2022/09/27 05:35:57;;;;;;;10.43;6.68;;;12.20;99.90;;;;;;2094203;28;20028;-71
2022/09/27 05:36:57;;;;;;;9.80;7.82;;;12.20;99.90;;;;;;2093143;28;20102;-71
2022/09/27 05:37:59;;;;;;;12.75;6.72;;;12.20;99.90;;;;;;2093085;28;20028;-72
2022/09/27 05:38:59;;;;;;;9.48;6.95;;;12.20;99.90;;;;;;2092838;28;20024;-72
2022/09/27 05:40:00;;;;;;;14.50;6.82;;;12.20;99.90;;;;;;2101623;28;20450;-72
2022/09/27 05:41:02;;;;;;;9.98;7.07;;;12.20;99.90;;;;;;2098966;28;20032;-71